»·PEaware :: N404JP L52-L88

N404JP :: L52-L88

FLIGHT INFORMATION

Flight Status: Arrived
Operator: Privately registered:
United States
More flights under this callsign
Pilot: Joe P. (26426)
Aircraft: CESSNA 172 SKYHAWK
(C172)
More flights by this aircraft type
Origin: L52 Oceano Co
United States
Destination: L88 New Cuyama
United States
More flights between these airports :: More routes between these airports
Route: WYNNR
File this flight plan on PilotEdge
Remarks: CAT 1
Altitude:
(Current/Filed)
7,500ft
Speed:
(Current/Filed)
110kts
Departed: 02-Oct-19 03:19 PM
Arrived: 02-Oct-19 03:50 PM
Distance/Time
Traveled:
47nm/0:30
Distance/Time
To Go:
Arrived

Flight Plot

Page will automatically refresh every two minutes.


Map Options




Map Legend


Flown Route
Filed Route
Departure Airport
Arrival Airport
Navaid (VOR, NDB)
Fix

Horizontal Profiles

Position Reports

Time Latitude Longitude Heading Altitude Ground
Speed
02-Oct-19 14:59 35.103340 -120.624451 33 18ft 0kts
02-Oct-19 15:00 35.103340 -120.624451 33 18ft 0kts
02-Oct-19 15:01 35.103340 -120.624451 32 18ft 0kts
02-Oct-19 15:02 35.103340 -120.624451 33 18ft 0kts
02-Oct-19 15:03 35.103340 -120.624451 33 18ft 0kts
02-Oct-19 15:04 35.103340 -120.624451 33 18ft 0kts
02-Oct-19 15:05 35.103341 -120.624451 32 18ft 0kts
02-Oct-19 15:06 35.103341 -120.624451 33 18ft 0kts
02-Oct-19 15:07 35.103341 -120.624451 32 18ft 0kts
02-Oct-19 15:08 35.103341 -120.624451 32 18ft 0kts
02-Oct-19 15:09 35.103341 -120.624451 32 18ft 0kts
02-Oct-19 15:10 35.103341 -120.624451 33 18ft 0kts
02-Oct-19 15:11 35.103341 -120.624451 33 18ft 0kts
02-Oct-19 15:12 35.103348 -120.624444 33 18ft 1kts
02-Oct-19 15:13 35.102358 -120.624289 202 18ft 13kts
02-Oct-19 15:14 35.100381 -120.621142 123 18ft 13kts
02-Oct-19 15:15 35.099693 -120.619842 120 18ft 0kts
02-Oct-19 15:16 35.099432 -120.619700 128 18ft 1kts
02-Oct-19 15:17 35.099506 -120.619495 34 18ft 0kts
02-Oct-19 15:18 35.100814 -120.621066 302 18ft 52kts
02-Oct-19 15:19 35.111243 -120.617445 88 863ft 100kts
02-Oct-19 15:20 35.099928 -120.589089 108 1966ft 92kts
02-Oct-19 15:21 35.092014 -120.560818 99 2976ft 84kts
02-Oct-19 15:22 35.089638 -120.534052 42 3877ft 78kts
02-Oct-19 15:23 35.093806 -120.510105 86 4603ft 81kts
02-Oct-19 15:24 35.094164 -120.482180 89 5195ft 81kts
02-Oct-19 15:25 35.094313 -120.454558 89 5737ft 83kts
02-Oct-19 15:26 35.094361 -120.426282 91 6127ft 95kts
02-Oct-19 15:27 35.094272 -120.387912 90 5634ft 120kts
02-Oct-19 15:29 35.094239 -120.349667 90 5496ft 103kts
02-Oct-19 15:30 35.094232 -120.312120 90 5501ft 114kts
02-Oct-19 15:31 35.094204 -120.272463 90 5500ft 117kts
02-Oct-19 15:32 35.094150 -120.232292 90 5499ft 118kts
02-Oct-19 15:33 35.094085 -120.192160 90 5505ft 117kts
02-Oct-19 15:34 35.094018 -120.152012 90 5509ft 117kts
02-Oct-19 15:35 35.093927 -120.111926 90 5513ft 117kts
02-Oct-19 15:36 35.093830 -120.071747 90 5518ft 118kts
02-Oct-19 15:37 35.093723 -120.031292 90 5522ft 119kts
02-Oct-19 15:38 35.093594 -119.990413 91 5527ft 122kts
02-Oct-19 15:39 35.093434 -119.948717 91 5526ft 122kts
02-Oct-19 15:40 35.089593 -119.907903 126 5526ft 122kts
02-Oct-19 15:41 35.067881 -119.875820 128 5526ft 122kts
02-Oct-19 15:42 35.046324 -119.843728 128 5527ft 122kts
02-Oct-19 15:43 35.024645 -119.811474 128 5526ft 122kts
02-Oct-19 15:44 35.002441 -119.778455 128 5058ft 127kts
02-Oct-19 15:45 34.979554 -119.744451 128 4253ft 131kts
02-Oct-19 15:45 34.962461 -119.716384 117 3441ft 126kts
02-Oct-19 15:47 34.947210 -119.678277 116 2640ft 86kts
02-Oct-19 15:48 34.935841 -119.665862 249 2527ft 81kts
02-Oct-19 15:48 34.939973 -119.685635 294 2179ft 52kts
02-Oct-19 15:49 34.942607 -119.690589 177 2163ft 3kts
02-Oct-19 15:51 34.942603 -119.690589 172 2163ft 0kts
02-Oct-19 15:51 34.942603 -119.690589 172 2163ft 0kts

Navigation Log

Ident Type
Flight plan parsing failed, navigation log unavailable